Time;durP1;ratioP1;P1;durP2;ratioP2;P2;SDS_P1;SDS_P2;PMS_P1;PMS_P2;Temp;Humidity;BMP_temperature;BMP_pressure;BME280_temperature;BME280_humidity;BME280_pressure;Samples;Min_cycle;Max_cycle;Signal;HPM_P1;HPM_P2
2023/05/16 00:01:04;;;;;;;6.13;2.13;;;15.10;68.40;;;18.08;47.62;101389.03;5052672;28;20190;-68
2023/05/16 00:03:31;;;;;;;3.43;2.10;;;15.20;69.30;;;18.03;48.27;101389.66;5052008;28;20201;-68
2023/05/16 00:05:58;;;;;;;3.57;1.73;;;15.10;70.50;;;18.01;48.66;101390.88;5032809;28;20211;-68
2023/05/16 00:08:25;;;;;;;6.73;1.57;;;15.10;71.00;;;17.99;48.97;101395.59;5032848;28;20195;-69
2023/05/16 00:10:52;;;;;;;3.43;1.70;;;15.00;71.50;;;17.98;49.33;101394.78;5032855;28;20643;-67
2023/05/16 00:13:23;;;;;;;4.13;1.60;;;15.10;72.10;;;17.97;50.10;101392.34;5032422;28;20194;-68
2023/05/16 00:15:51;;;;;;;6.57;2.17;;;15.00;73.10;;;17.91;50.43;101393.16;5035898;28;20218;-68
2023/05/16 00:18:20;;;;;;;3.50;1.83;;;15.00;73.40;;;17.87;50.33;101399.91;5049028;28;20224;-67
2023/05/16 00:20:48;;;;;;;5.80;1.80;;;14.90;73.20;;;17.81;50.12;101406.06;5056182;28;20248;-68
2023/05/16 00:23:15;;;;;;;5.57;1.60;;;14.90;73.10;;;17.77;50.56;101396.84;5055390;28;20244;-67
2023/05/16 00:25:43;;;;;;;5.17;1.70;;;14.90;73.20;;;17.76;50.68;101389.91;5055490;28;20230;-69
2023/05/16 00:28:10;;;;;;;4.93;2.13;;;14.80;73.50;;;17.75;50.65;101398.91;5048118;28;20201;-69
2023/05/16 00:30:37;;;;;;;4.93;2.57;;;14.80;73.70;;;17.75;50.48;101393.56;5054418;28;20194;-69
2023/05/16 00:33:04;;;;;;;9.40;2.27;;;14.80;73.70;;;17.73;50.73;101395.63;5055685;28;20197;-69
2023/05/16 00:35:32;;;;;;;6.17;2.63;;;14.80;73.60;;;17.71;50.67;101392.34;5055607;28;20624;-69
2023/05/16 00:38:00;;;;;;;7.80;2.10;;;14.70;73.60;;;17.68;50.39;101395.41;5045014;28;20282;-69
2023/05/16 00:40:27;;;;;;;4.30;2.00;;;14.70;73.30;;;17.65;50.52;101393.16;5036366;28;20735;-69
2023/05/16 00:42:54;;;;;;;7.93;2.03;;;14.70;73.30;;;17.65;50.69;101387.81;5055175;28;20650;-69
2023/05/16 00:45:21;;;;;;;6.43;2.40;;;14.70;73.60;;;17.59;50.66;101390.28;5055446;28;20214;-69
2023/05/16 00:47:49;;;;;;;5.27;2.07;;;14.70;73.40;;;17.53;50.66;101385.78;5054595;28;20197;-68
2023/05/16 00:50:17;;;;;;;4.10;2.10;;;14.60;73.50;;;17.48;50.75;101395.38;5055509;28;20186;-67
2023/05/16 00:52:47;;;;;;;10.60;2.53;;;14.60;73.40;;;17.48;50.90;101398.84;5055437;28;20354;-69
2023/05/16 00:55:14;;;;;;;5.50;1.97;;;14.60;73.70;;;17.50;50.88;101396.81;5055399;28;20267;-69
2023/05/16 00:57:41;;;;;;;5.07;2.07;;;14.60;73.60;;;17.51;50.79;101395.81;5054655;28;20248;-69
2023/05/16 01:00:09;;;;;;;7.23;2.40;;;14.60;74.20;;;17.56;50.41;101390.72;5055339;28;20213;-69
2023/05/16 01:02:37;;;;;;;5.60;2.20;;;14.60;73.40;;;17.56;50.22;101396.03;5055293;28;20239;-68
2023/05/16 01:05:06;;;;;;;11.30;2.50;;;14.60;73.00;;;17.56;49.95;101398.69;5042441;28;20219;-69
2023/05/16 01:07:34;;;;;;;6.43;2.30;;;14.60;72.80;;;17.56;49.91;101397.88;5041045;28;20197;-69
2023/05/16 01:10:04;;;;;;;7.80;2.37;;;14.60;72.60;;;17.56;50.19;101396.03;5054986;28;20216;-69
2023/05/16 01:12:40;;;;;;;6.23;2.17;;;14.60;72.60;;;17.55;50.42;101398.88;5055137;28;20198;-70
2023/05/16 01:15:12;;;;;;;8.33;2.37;;;14.60;72.50;;;17.55;49.70;101399.72;5054705;28;20218;-67
2023/05/16 01:17:53;;;;;;;3.40;1.73;;;14.60;72.00;;;17.51;49.44;101409.13;5048023;28;20647;-67
2023/05/16 01:20:36;;;;;;;5.97;2.47;;;14.60;71.90;;;17.52;49.59;101416.06;5034777;28;20198;-68
2023/05/16 01:23:38;;;;;;;7.57;2.67;;;14.60;71.60;;;17.46;49.16;101427.53;5034526;28;20179;-67
2023/05/16 01:26:16;;;;;;;8.93;3.20;;;14.60;71.60;;;17.45;49.27;101412.56;5034211;28;20202;-67
2023/05/16 01:28:45;;;;;;;6.90;2.37;;;14.50;71.40;;;17.46;49.31;101416.03;5044083;28;20189;-67
2023/05/16 01:31:12;;;;;;;6.33;2.13;;;14.50;71.10;;;17.45;49.19;101414.41;5054680;28;20526;-68
2023/05/16 01:33:40;;;;;;;4.73;2.07;;;14.50;70.80;;;17.44;48.81;101412.78;5052716;28;20677;-67
2023/05/16 01:36:20;;;;;;;9.23;2.30;;;14.50;70.70;;;17.43;48.93;101411.94;5054417;28;20588;-67
2023/05/16 01:39:02;;;;;;;8.03;2.53;;;14.50;70.50;;;17.47;48.54;101423.81;5054235;28;20601;-69
2023/05/16 01:41:46;;;;;;;6.90;2.50;;;14.60;70.50;;;17.51;48.73;101419.78;5044734;28;20213;-69
2023/05/16 01:44:22;;;;;;;6.10;2.27;;;14.60;70.40;;;17.55;48.29;101426.34;5046406;28;20592;-69
2023/05/16 01:46:58;;;;;;;9.00;2.10;;;14.60;70.20;;;17.59;48.20;101421.41;5034170;28;20182;-69
2023/05/16 01:49:33;;;;;;;10.33;2.97;;;14.60;70.10;;;17.55;48.24;101415.69;5046933;28;20565;-69
2023/05/16 01:52:06;;;;;;;7.97;2.27;;;14.60;69.60;;;17.51;48.08;101425.09;5054222;28;20193;-67
2023/05/16 01:54:41;;;;;;;8.57;3.10;;;14.60;69.60;;;17.49;47.97;101432.44;5044858;28;20218;-69
2023/05/16 01:57:12;;;;;;;8.50;2.77;;;14.60;69.80;;;17.49;48.08;101426.28;5034385;28;20340;-67
2023/05/16 01:59:41;;;;;;;6.03;2.17;;;14.60;70.10;;;17.48;48.32;101429.97;5033978;28;20253;-67
2023/05/16 02:02:08;;;;;;;9.40;2.27;;;14.50;69.80;;;17.47;48.26;101429.13;5034274;28;20268;-69
2023/05/16 02:04:35;;;;;;;5.73;2.03;;;14.50;69.80;;;17.44;48.25;101429.56;5048848;28;20228;-67
2023/05/16 02:07:02;;;;;;;10.30;3.17;;;14.50;69.50;;;17.41;48.32;101435.28;5053533;28;20252;-69
2023/05/16 02:09:30;;;;;;;11.33;3.03;;;14.50;69.60;;;17.40;48.26;101440.81;5053875;28;20190;-68
2023/05/16 02:11:57;;;;;;;6.37;2.30;;;14.50;69.70;;;17.38;48.10;101434.84;5053871;28;20190;-68
2023/05/16 02:14:25;;;;;;;10.93;2.93;;;14.50;69.60;;;17.35;48.40;101425.44;5052975;28;20228;-67
2023/05/16 02:16:52;;;;;;;11.07;3.07;;;14.40;69.70;;;17.36;47.98;101436.91;5053903;28;20194;-67
2023/05/16 02:19:19;;;;;;;9.50;2.93;;;14.40;69.60;;;17.35;47.91;101440.59;5053625;28;20271;-67
2023/05/16 02:21:46;;;;;;;7.80;2.17;;;14.40;69.50;;;17.33;48.14;101438.13;5053351;28;20268;-67
2023/05/16 02:24:13;;;;;;;14.47;3.10;;;14.40;69.60;;;17.31;48.04;101434.03;5051193;28;20218;-68
2023/05/16 02:26:40;;;;;;;11.20;3.33;;;14.40;69.50;;;17.31;48.24;101445.50;5053165;28;20197;-67
2023/05/16 02:29:08;;;;;;;10.00;2.77;;;14.40;69.40;;;17.29;47.84;101442.22;5053259;28;20243;-67
2023/05/16 02:31:36;;;;;;;11.53;3.63;;;14.30;69.40;;;17.26;48.20;101441.78;5053327;28;20302;-67
2023/05/16 02:34:03;;;;;;;8.67;3.30;;;14.30;69.60;;;17.22;47.69;101440.56;5051786;28;20216;-67
2023/05/16 02:36:30;;;;;;;13.13;3.13;;;14.20;69.10;;;17.18;47.77;101448.13;5032946;28;20241;-67
2023/05/16 02:38:57;;;;;;;12.70;3.40;;;14.20;68.80;;;17.12;47.50;101448.09;5034004;28;20199;-67
2023/05/16 02:41:24;;;;;;;8.83;3.23;;;14.10;68.30;;;17.07;47.75;101454.00;5053276;28;20206;-67
2023/05/16 02:43:51;;;;;;;10.60;2.93;;;14.10;68.50;;;17.07;47.47;101446.03;5053038;28;20193;-67
2023/05/16 02:46:27;;;;;;;12.10;3.10;;;14.10;68.30;;;17.06;47.77;101459.53;5051354;28;20580;-67
2023/05/16 02:48:56;;;;;;;13.73;3.73;;;14.20;68.40;;;17.09;47.44;101461.81;5053777;28;20189;-67
2023/05/16 02:51:26;;;;;;;7.73;2.83;;;14.20;68.00;;;17.07;46.95;101463.84;5053192;28;20224;-67
2023/05/16 02:54:00;;;;;;;8.33;2.73;;;14.10;67.60;;;17.07;47.40;101471.84;5053145;28;20247;-67
2023/05/16 02:56:27;;;;;;;11.10;3.30;;;14.10;67.50;;;17.04;47.30;101474.88;5033132;28;20217;-67
2023/05/16 02:58:55;;;;;;;9.43;3.20;;;14.20;67.60;;;17.00;46.96;101479.75;5033037;28;20190;-67
2023/05/16 03:01:22;;;;;;;12.10;3.57;;;14.10;67.00;;;16.94;46.82;101475.25;5045890;28;20316;-67
2023/05/16 03:03:49;;;;;;;9.57;3.40;;;14.10;67.00;;;16.89;46.77;101488.31;5052531;28;20255;-68
2023/05/16 03:06:17;;;;;;;10.57;3.57;;;14.10;66.70;;;16.79;46.57;101486.00;5033759;28;20190;-67
2023/05/16 03:08:44;;;;;;;10.97;3.97;;;14.00;66.80;;;16.72;47.02;101481.66;5032393;28;20273;-67
2023/05/16 03:11:11;;;;;;;14.37;3.93;;;13.80;66.60;;;16.63;46.87;101477.53;5032784;28;20201;-69
2023/05/16 03:13:38;;;;;;;10.53;2.97;;;13.70;66.70;;;16.54;46.83;101484.03;5031879;28;20198;-69
2023/05/16 03:16:05;;;;;;;9.50;2.90;;;13.70;67.00;;;16.49;47.09;101473.94;5033260;28;20206;-68
2023/05/16 03:18:32;;;;;;;10.00;3.47;;;13.70;67.30;;;16.46;47.21;101482.31;5033251;28;20222;-69
2023/05/16 03:21:00;;;;;;;8.97;2.77;;;13.60;67.20;;;16.42;47.04;101480.22;5033089;28;20222;-69
2023/05/16 03:23:29;;;;;;;12.50;3.27;;;13.60;67.10;;;16.38;47.39;101492.28;5032833;28;20199;-69
2023/05/16 03:25:56;;;;;;;9.20;3.00;;;13.50;67.20;;;16.36;47.41;101491.63;5048374;28;20225;-68
2023/05/16 03:28:23;;;;;;;14.83;3.20;;;13.50;67.10;;;16.33;47.48;101502.66;5052956;28;20201;-68
2023/05/16 03:30:50;;;;;;;8.80;2.77;;;13.50;67.20;;;16.31;47.44;101504.69;5052781;28;20186;-68
2023/05/16 03:33:18;;;;;;;7.90;2.87;;;13.50;67.30;;;16.28;46.84;101506.69;5051304;28;20221;-68
2023/05/16 03:35:45;;;;;;;9.03;2.70;;;13.40;67.00;;;16.23;47.38;101498.50;5038353;28;20289;-68
2023/05/16 03:38:12;;;;;;;8.03;2.93;;;13.40;67.00;;;16.17;47.16;101512.53;5032701;28;20195;-68
2023/05/16 03:40:41;;;;;;;8.67;2.73;;;13.30;66.90;;;16.13;47.03;101507.81;5046700;28;20217;-68
2023/05/16 03:43:07;;;;;;;11.90;2.70;;;13.30;66.90;;;16.10;47.18;101510.84;5052340;28;20661;-68
2023/05/16 03:45:34;;;;;;;12.87;3.03;;;13.30;67.00;;;16.09;47.07;101512.66;5039739;28;20214;-68
2023/05/16 03:48:02;;;;;;;9.20;2.73;;;13.30;66.60;;;16.09;46.88;101523.28;5033393;28;20195;-68
2023/05/16 03:50:29;;;;;;;13.17;3.20;;;13.30;66.40;;;16.09;46.83;101523.28;5036635;28;20187;-68
2023/05/16 03:52:56;;;;;;;10.77;3.10;;;13.30;66.60;;;16.12;46.44;101516.78;5036161;28;20190;-68
2023/05/16 03:55:22;;;;;;;10.87;3.10;;;13.30;66.50;;;16.15;46.74;101522.53;5046880;28;20217;-68
2023/05/16 03:57:51;;;;;;;10.37;2.97;;;13.30;66.40;;;16.19;46.36;101513.16;5056202;28;20263;-68
2023/05/16 04:00:18;;;;;;;13.13;3.17;;;13.30;66.20;;;16.22;46.55;101523.41;5056020;28;20248;-68
2023/05/16 04:02:45;;;;;;;14.13;2.93;;;13.30;66.40;;;16.31;46.35;101531.25;5056180;28;20193;-68
2023/05/16 04:05:13;;;;;;;7.30;2.90;;;13.30;66.20;;;16.33;46.39;101518.59;5047485;28;20211;-68
2023/05/16 04:07:40;;;;;;;7.40;2.40;;;13.30;66.20;;;16.37;46.01;101530.47;5035542;28;20682;-68
2023/05/16 04:10:09;;;;;;;8.97;2.77;;;13.40;66.10;;;16.40;46.22;101532.75;5035975;28;20187;-68
2023/05/16 04:12:36;;;;;;;13.37;3.80;;;13.40;66.40;;;16.41;46.13;101531.72;5039735;28;20654;-68
2023/05/16 04:15:06;;;;;;;11.87;3.13;;;13.50;66.10;;;16.40;46.21;101544.22;5055473;28;20213;-68
2023/05/16 04:17:33;;;;;;;9.10;3.07;;;13.50;66.20;;;16.42;46.05;101544.00;5056186;28;20213;-68
2023/05/16 04:20:00;;;;;;;9.87;2.60;;;13.50;66.30;;;16.41;46.10;101548.50;5055822;28;20214;-70
2023/05/16 04:22:28;;;;;;;10.10;2.97;;;13.50;65.90;;;16.41;46.19;101542.34;5055585;28;20259;-68
2023/05/16 04:24:55;;;;;;;12.20;3.67;;;13.50;65.70;;;16.40;46.14;101551.34;5049477;28;20210;-68
2023/05/16 04:27:22;;;;;;;9.23;2.90;;;13.50;65.70;;;16.36;46.20;101542.09;5035866;28;20234;-69
2023/05/16 04:29:49;;;;;;;8.27;3.10;;;13.50;65.50;;;16.33;46.19;101550.47;5054321;28;20259;-67
2023/05/16 04:32:18;;;;;;;10.77;3.03;;;13.50;65.50;;;16.30;46.13;101561.50;5055287;28;20248;-69
2023/05/16 04:34:47;;;;;;;5.67;2.70;;;13.40;65.50;;;16.23;46.26;101556.94;5054769;28;20659;-69
2023/05/16 04:37:14;;;;;;;12.10;3.50;;;13.40;65.50;;;16.17;46.17;101552.38;5050921;28;20217;-68
2023/05/16 04:39:41;;;;;;;13.67;3.57;;;13.40;65.70;;;16.15;46.31;101562.38;5041575;28;20186;-68
2023/05/16 04:42:08;;;;;;;10.43;2.70;;;13.30;65.70;;;16.12;46.44;101554.78;5054319;28;20250;-69
2023/05/16 04:44:35;;;;;;;8.80;2.80;;;13.30;65.70;;;16.07;46.20;101562.50;5051346;28;20260;-68
2023/05/16 04:47:02;;;;;;;8.57;3.50;;;13.30;65.60;;;16.02;46.51;101559.59;5034951;28;20208;-69
2023/05/16 04:49:30;;;;;;;7.63;2.87;;;13.20;65.60;;;15.97;46.33;101556.72;5034935;28;20552;-70
2023/05/16 04:51:58;;;;;;;10.43;3.10;;;13.10;65.70;;;15.94;46.50;101561.56;5035280;28;20224;-69
2023/05/16 04:54:25;;;;;;;15.93;4.20;;;13.10;66.10;;;15.89;46.50;101564.78;5051940;28;20229;-69
2023/05/16 04:56:52;;;;;;;14.07;3.63;;;13.10;65.80;;;15.86;46.54;101573.13;5055090;28;20556;-69
2023/05/16 04:59:20;;;;;;;13.53;3.87;;;13.10;66.10;;;15.83;46.73;101570.03;5054268;28;20588;-68
2023/05/16 05:01:46;;;;;;;13.00;3.67;;;13.00;66.20;;;15.79;46.47;101585.50;5054264;28;20214;-69
2023/05/16 05:04:14;;;;;;;11.30;3.83;;;13.00;66.20;;;15.75;46.72;101581.59;5054526;28;20245;-67
2023/05/16 05:06:42;;;;;;;7.03;3.50;;;13.00;66.30;;;15.71;46.94;101588.28;5054006;28;20205;-67
2023/05/16 05:09:09;;;;;;;9.60;3.30;;;12.90;66.30;;;15.68;47.10;101583.34;5054973;28;20201;-68
2023/05/16 05:11:36;;;;;;;14.10;3.97;;;12.90;66.60;;;15.69;47.15;101579.66;5054913;28;20538;-68
2023/05/16 05:14:03;;;;;;;11.23;3.47;;;12.90;66.80;;;15.70;47.13;101591.94;5054133;28;20210;-68
2023/05/16 05:16:30;;;;;;;16.80;4.00;;;12.80;66.80;;;15.71;46.88;101588.28;5035841;28;20272;-68
2023/05/16 05:18:57;;;;;;;8.23;3.23;;;12.80;66.90;;;15.72;47.16;101595.22;5034362;28;20660;-68
2023/05/16 05:21:24;;;;;;;10.70;3.00;;;12.80;67.00;;;15.73;47.04;101594.22;5033969;28;20218;-68
2023/05/16 05:23:53;;;;;;;7.80;3.03;;;12.80;67.00;;;15.74;47.07;101598.50;5032763;28;20193;-68
2023/05/16 05:26:21;;;;;;;9.57;3.53;;;12.90;66.80;;;15.78;47.08;101597.16;5049672;28;20277;-68
2023/05/16 05:28:48;;;;;;;8.90;3.23;;;12.90;66.90;;;15.80;46.94;101603.09;5053941;28;20194;-68
2023/05/16 05:31:32;;;;;;;11.10;3.57;;;12.90;66.70;;;15.81;46.74;101602.06;5053198;28;20210;-68
2023/05/16 05:33:59;;;;;;;10.27;3.87;;;12.90;66.80;;;15.82;46.88;101595.75;5044599;28;20201;-69
2023/05/16 05:36:26;;;;;;;10.73;3.10;;;12.90;66.50;;;15.85;46.86;101595.38;5049703;28;20213;-69
2023/05/16 05:38:55;;;;;;;11.37;3.87;;;13.00;66.90;;;15.90;46.44;101603.59;5053578;28;20615;-69
2023/05/16 05:41:22;;;;;;;12.67;4.13;;;12.90;66.50;;;15.91;46.75;101594.63;5053381;28;20210;-69
2023/05/16 05:43:49;;;;;;;8.90;4.23;;;12.90;66.40;;;15.94;46.66;101607.53;5052957;28;20197;-69
2023/05/16 05:46:16;;;;;;;10.10;3.97;;;13.00;66.70;;;16.00;46.49;101606.75;5039313;28;20261;-68
2023/05/16 05:48:43;;;;;;;8.13;3.23;;;13.00;66.30;;;16.07;46.60;101602.34;5034978;28;20190;-68
2023/05/16 05:51:12;;;;;;;11.37;3.90;;;13.10;66.40;;;16.16;46.50;101603.84;5053574;28;20529;-70
2023/05/16 05:53:41;;;;;;;10.57;3.40;;;13.10;66.50;;;16.31;46.63;101605.66;5053203;28;20190;-68
2023/05/16 05:56:10;;;;;;;13.17;4.23;;;13.30;67.00;;;16.46;46.15;101607.22;5032861;28;20206;-70
2023/05/16 05:58:40;;;;;;;7.20;3.60;;;13.40;66.00;;;16.57;45.84;101605.91;5032480;28;20340;-69
2023/05/16 06:01:07;;;;;;;11.37;3.23;;;13.50;65.50;;;16.63;45.78;101610.44;5031999;28;20218;-69
2023/05/16 06:03:34;;;;;;;13.10;3.50;;;13.60;65.40;;;16.67;45.36;101623.16;5041412;28;20190;-69
2023/05/16 06:06:02;;;;;;;12.43;3.20;;;13.70;64.80;;;16.67;45.20;101619.66;5053424;28;20292;-69
2023/05/16 06:08:29;;;;;;;12.00;3.73;;;13.70;64.60;;;16.64;45.47;101612.91;5052739;28;20649;-69
2023/05/16 06:10:56;;;;;;;8.67;3.20;;;13.70;64.40;;;16.71;45.33;101628.94;5052906;28;20190;-70
2023/05/16 06:13:24;;;;;;;8.27;3.00;;;13.80;64.60;;;16.74;45.22;101632.00;5045411;28;20663;-69
2023/05/16 06:15:52;;;;;;;8.03;2.70;;;13.80;64.30;;;16.81;44.98;101629.41;5032666;28;20272;-69
2023/05/16 06:18:19;;;;;;;9.33;2.50;;;13.80;64.40;;;16.86;45.01;101633.13;5032868;28;20194;-68
2023/05/16 06:20:49;;;;;;;7.87;2.70;;;13.90;64.60;;;16.96;44.72;101627.47;5032921;28;20214;-68
2023/05/16 06:23:16;;;;;;;7.37;2.80;;;13.90;64.40;;;17.05;44.90;101625.47;5030957;28;20190;-68
2023/05/16 06:25:46;;;;;;;11.53;3.70;;;14.00;64.20;;;17.15;44.53;101632.09;5032658;28;20222;-69
2023/05/16 06:28:13;;;;;;;10.17;3.60;;;14.10;64.00;;;17.25;44.24;101635.25;5037991;28;20252;-70
2023/05/16 06:30:41;;;;;;;11.00;3.47;;;14.10;63.80;;;17.32;43.81;101633.44;5040010;28;20217;-68
2023/05/16 06:33:08;;;;;;;9.90;3.20;;;14.20;63.40;;;17.38;43.98;101637.13;5032727;28;20635;-69
2023/05/16 06:35:35;;;;;;;10.67;3.40;;;14.20;63.40;;;17.46;43.81;101629.81;5032556;28;20211;-69
2023/05/16 06:38:02;;;;;;;13.80;3.63;;;14.30;63.10;;;17.55;43.40;101641.97;5032568;28;20194;-69
2023/05/16 06:40:29;;;;;;;6.47;2.60;;;14.40;62.10;;;17.65;42.88;101640.78;5045731;28;20190;-69
2023/05/16 06:42:57;;;;;;;10.30;3.10;;;14.40;61.80;;;17.70;42.61;101651.66;5050067;28;20206;-68
2023/05/16 06:45:24;;;;;;;8.07;3.07;;;14.50;61.10;;;17.74;42.53;101642.25;5031295;28;20215;-67
2023/05/16 06:47:54;;;;;;;10.13;2.77;;;14.50;61.00;;;17.77;42.42;101634.69;5032691;28;20190;-69
2023/05/16 06:50:23;;;;;;;11.47;3.30;;;14.60;60.50;;;17.83;41.78;101651.72;5031784;28;20551;-70
2023/05/16 06:52:50;;;;;;;8.13;2.57;;;14.60;60.70;;;17.90;41.69;101658.69;5032819;28;20195;-71
2023/05/16 06:55:17;;;;;;;10.70;2.33;;;14.70;59.40;;;18.03;41.35;101655.25;5052426;28;20216;-69
2023/05/16 06:57:44;;;;;;;6.67;2.37;;;14.80;59.70;;;18.20;41.57;101660.03;5052495;28;20288;-69
2023/05/16 07:00:13;;;;;;;7.60;2.33;;;14.90;60.00;;;18.32;41.28;101654.09;5045313;28;20215;-69
2023/05/16 07:02:40;;;;;;;7.60;2.77;;;15.00;59.60;;;18.35;40.98;101657.16;5051919;28;20322;-69
2023/05/16 07:05:11;;;;;;;6.27;2.63;;;15.10;59.30;;;18.29;40.66;101658.00;5052063;28;20720;-69
2023/05/16 07:07:39;;;;;;;6.40;2.37;;;15.10;58.60;;;18.25;40.69;101662.91;5045045;28;20190;-68
2023/05/16 07:10:07;;;;;;;7.27;2.50;;;15.10;58.50;;;18.22;40.85;101665.16;5046169;28;20217;-69
2023/05/16 07:12:36;;;;;;;9.70;2.80;;;15.10;58.50;;;18.22;40.97;101659.81;5050980;28;20236;-69
2023/05/16 07:15:04;;;;;;;7.57;2.97;;;15.10;58.30;;;18.27;40.45;101665.38;5051008;28;20252;-68
2023/05/16 07:17:31;;;;;;;10.07;2.63;;;15.10;57.90;;;18.29;40.41;101668.66;5051411;28;20224;-68
2023/05/16 07:19:58;;;;;;;7.03;2.73;;;15.20;57.70;;;18.39;40.12;101662.94;5052264;28;20186;-70
2023/05/16 07:22:29;;;;;;;6.80;3.07;;;15.30;57.60;;;18.57;40.00;101672.00;5051005;28;20225;-70
2023/05/16 07:24:59;;;;;;;7.47;3.00;;;15.30;57.50;;;18.76;39.55;101671.19;5056066;28;20296;-69
2023/05/16 07:27:32;;;;;;;9.20;3.10;;;15.40;57.30;;;18.97;38.30;101672.03;5055345;28;20217;-68
2023/05/16 07:30:04;;;;;;;6.60;2.47;;;15.50;55.80;;;19.12;38.22;101664.59;5033294;28;20228;-71
2023/05/16 07:32:36;;;;;;;7.57;2.83;;;15.60;55.50;;;19.22;37.99;101670.34;5037387;28;20213;-72
2023/05/16 07:35:08;;;;;;;8.77;3.27;;;15.80;55.60;;;19.32;37.81;101668.06;5036221;28;20241;-69
2023/05/16 07:37:37;;;;;;;10.70;3.67;;;15.90;55.10;;;19.36;37.50;101678.16;5049966;28;20224;-70
2023/05/16 07:40:09;;;;;;;7.07;2.63;;;16.00;54.30;;;19.32;36.66;101681.44;5032455;28;20193;-70
2023/05/16 07:42:37;;;;;;;9.10;2.17;;;16.00;53.20;;;19.22;36.64;101681.03;5031003;28;20221;-70
2023/05/16 07:45:06;;;;;;;8.30;2.53;;;16.00;52.80;;;19.09;36.81;101681.06;5044550;28;20253;-69
2023/05/16 07:47:36;;;;;;;8.67;2.63;;;16.00;53.00;;;18.99;37.31;101683.31;5031871;28;20677;-70
2023/05/16 07:50:05;;;;;;;11.13;2.80;;;15.90;53.40;;;18.91;37.46;101689.66;5054216;28;20213;-70
2023/05/16 07:52:33;;;;;;;5.47;2.70;;;15.80;53.60;;;18.81;37.78;101703.44;5037167;28;20202;-70
2023/05/16 07:55:06;;;;;;;7.77;2.10;;;15.80;54.30;;;18.67;39.37;101708.94;5038769;28;20215;-70
2023/05/16 07:57:36;;;;;;;9.80;2.77;;;15.60;57.00;;;18.46;39.87;101701.13;5038100;28;20280;-71
2023/05/16 08:00:38;;;;;;;3.20;2.27;;;15.50;57.10;;;18.24;40.63;101709.25;5028353;28;20203;-71
2023/05/16 08:03:17;;;;;;;6.73;2.10;;;15.40;57.90;;;18.24;40.98;101703.09;5026938;28;20244;-71
2023/05/16 08:05:56;;;;;;;5.43;1.90;;;15.30;58.70;;;18.30;41.56;101704.13;5046546;28;20225;-70
2023/05/16 08:08:25;;;;;;;6.37;2.77;;;15.20;59.40;;;18.42;41.71;101700.69;5039454;28;20228;-71
2023/05/16 08:10:54;;;;;;;6.23;3.03;;;15.30;60.00;;;18.84;41.51;101710.19;5039378;28;20202;-70
2023/05/16 08:13:22;;;;;;;8.07;2.80;;;15.40;60.70;;;19.75;40.58;101698.59;5038962;28;20205;-70
2023/05/16 08:15:50;;;;;;;8.57;3.40;;;15.60;61.00;;;20.90;39.25;101701.00;5039278;28;20231;-71
2023/05/16 08:18:18;;;;;;;7.60;2.73;;;16.10;60.50;;;22.27;36.43;101701.41;5037510;28;20202;-71
2023/05/16 08:20:50;;;;;;;8.60;2.73;;;16.70;58.90;;;23.74;34.46;101692.34;5040928;28;20197;-71
2023/05/16 08:23:21;;;;;;;8.93;2.57;;;17.50;57.50;;;25.12;31.81;101688.13;5037057;28;20194;-71
2023/05/16 08:26:24;;;;;;;8.03;3.10;;;18.40;54.40;;;26.32;30.52;101684.50;5049296;28;20226;-72
2023/05/16 08:29:57;;;;;;;7.73;2.93;;;19.30;53.40;;;27.17;28.55;101687.91;5056816;28;20212;-70
2023/05/16 08:32:27;;;;;;;6.90;2.50;;;20.40;49.20;;;26.54;27.86;101694.19;5035200;28;20193;-70
2023/05/16 08:35:25;;;;;;;8.63;3.03;;;20.80;46.50;;;25.16;30.09;101697.34;5054758;28;20230;-70
2023/05/16 08:38:27;;;;;;;7.37;2.83;;;20.70;48.30;;;23.89;31.37;101704.22;4995514;28;20266;-70
2023/05/16 08:41:35;;;;;;;7.70;2.70;;;20.20;46.70;;;22.82;33.10;101702.84;4976872;28;20328;-70
2023/05/16 08:44:20;;;;;;;4.17;2.47;;;19.70;47.80;;;23.51;33.24;101696.69;4966805;28;20239;-70
2023/05/16 08:47:16;;;;;;;2.93;1.90;;;19.50;49.90;;;25.15;31.02;101693.00;4979325;28;20199;-70
2023/05/16 08:49:51;;;;;;;7.80;3.33;;;19.60;49.20;;;25.57;28.80;101695.22;4956956;28;20208;-70
2023/05/16 08:52:32;;;;;;;6.87;2.60;;;19.90;46.80;;;25.51;28.63;101692.47;4979396;28;20681;-70
2023/05/16 08:55:25;;;;;;;7.10;2.37;;;20.20;45.40;;;25.71;28.55;101696.50;4976334;28;20797;-69
2023/05/16 08:58:53;;;;;;;7.57;1.97;;;20.40;44.20;;;26.13;26.60;101692.16;4962930;28;20624;-70
2023/05/16 09:02:11;;;;;;;5.97;2.60;;;20.60;41.60;;;27.47;24.72;101690.03;4974922;28;20315;-68
2023/05/16 09:04:40;;;;;;;4.83;2.40;;;21.10;40.60;;;28.63;23.97;101690.38;4991520;28;20216;-67
2023/05/16 09:07:07;;;;;;;5.43;2.10;;;21.70;40.10;;;29.64;21.87;101677.44;4992270;28;20674;-70
2023/05/16 09:09:34;;;;;;;3.70;3.10;;;22.20;37.50;;;30.62;21.68;101683.63;4992068;28;20302;-68
2023/05/16 09:12:01;;;;;;;5.87;3.50;;;22.90;37.70;;;31.51;20.85;101684.94;4992418;28;20770;-69
2023/05/16 09:14:29;;;;;;;4.73;2.33;;;23.60;35.80;;;32.29;19.44;101676.25;4996582;28;20216;-69
2023/05/16 09:17:05;;;;;;;6.23;2.47;;;24.20;34.10;;;32.97;19.13;101677.31;5035485;28;20225;-69
2023/05/16 09:19:37;;;;;;;6.00;2.43;;;24.90;32.50;;;32.42;19.13;101675.50;5047828;28;20200;-69
2023/05/16 09:22:07;;;;;;;5.97;2.33;;;25.20;31.20;;;31.13;19.16;101684.00;5054206;28;20214;-69
2023/05/16 09:24:38;;;;;;;4.33;1.90;;;25.20;30.20;;;29.71;20.13;101690.69;5052706;28;20210;-68
2023/05/16 09:27:10;;;;;;;8.13;2.73;;;24.80;29.80;;;28.35;21.31;101682.72;5053830;28;20354;-69
2023/05/16 09:29:39;;;;;;;4.17;2.20;;;24.10;29.90;;;27.35;22.42;101687.50;5052382;28;20623;-70
2023/05/16 09:32:11;;;;;;;6.07;2.00;;;23.60;30.60;;;26.85;22.56;101690.69;5053716;28;20197;-70
2023/05/16 09:34:44;;;;;;;6.73;2.53;;;23.00;31.20;;;27.61;22.78;101691.16;5053827;28;20550;-71
2023/05/16 09:37:11;;;;;;;4.50;1.83;;;22.70;32.00;;;28.77;21.69;101683.31;5053583;28;20198;-70
2023/05/16 09:39:44;;;;;;;5.30;2.00;;;22.80;32.60;;;30.01;19.89;101682.41;5053592;28;20212;-68
2023/05/16 09:42:12;;;;;;;7.27;2.40;;;23.10;31.90;;;31.21;19.04;101682.56;5048165;28;20278;-68
2023/05/16 09:44:44;;;;;;;7.60;1.90;;;23.60;31.70;;;32.06;18.36;101683.44;5033537;28;20224;-70
2023/05/16 09:47:14;;;;;;;6.33;3.20;;;24.10;30.60;;;32.29;18.43;101670.81;5033810;28;20203;-70
2023/05/16 09:49:41;;;;;;;8.37;3.17;;;24.70;30.30;;;32.28;17.58;101677.38;5037688;28;20619;-69
2023/05/16 09:52:09;;;;;;;5.83;2.70;;;25.10;29.50;;;31.60;17.84;101666.84;5053485;28;20198;-68
2023/05/16 09:54:36;;;;;;;6.37;3.10;;;25.10;28.90;;;30.52;19.13;101670.16;5053958;28;20536;-68
2023/05/16 09:57:03;;;;;;;5.40;2.50;;;25.10;29.30;;;29.56;20.03;101672.56;5053744;28;20704;-70
2023/05/16 09:59:35;;;;;;;5.37;2.47;;;24.80;29.40;;;28.43;21.19;101691.13;5053280;28;20268;-70
2023/05/16 10:02:05;;;;;;;5.40;2.70;;;24.20;29.80;;;27.25;23.14;101689.31;5050405;28;20538;-68
2023/05/16 10:04:33;;;;;;;6.20;2.23;;;23.50;31.50;;;26.23;24.68;101676.06;5051390;28;20225;-70
2023/05/16 10:07:03;;;;;;;6.23;2.80;;;22.90;33.20;;;25.33;25.51;101695.44;5053417;28;20613;-70
2023/05/16 10:09:32;;;;;;;8.67;3.63;;;22.20;34.00;;;24.60;26.31;101686.72;5052691;28;20638;-70
2023/05/16 10:12:03;;;;;;;3.57;2.33;;;21.60;35.20;;;24.06;26.46;101702.44;5034853;28;20201;-69
2023/05/16 10:14:35;;;;;;;5.77;2.40;;;21.00;34.80;;;23.69;26.76;101706.50;5035569;28;20217;-68
2023/05/16 10:17:07;;;;;;;6.97;2.53;;;20.40;35.30;;;23.29;27.76;101716.34;5048583;28;20210;-68
2023/05/16 10:19:38;;;;;;;4.70;2.20;;;20.00;36.70;;;22.85;27.89;101721.19;5041770;28;20204;-68
2023/05/16 10:22:07;;;;;;;4.90;2.17;;;19.50;37.10;;;22.37;28.71;101727.72;5033138;28;20238;-70
2023/05/16 10:24:43;;;;;;;4.43;2.30;;;19.10;37.60;;;21.86;28.76;101728.16;5046215;28;20228;-69